Time;durP1;ratioP1;P1;durP2;ratioP2;P2;SDS_P1;SDS_P2;PMS_P1;PMS_P2;Temp;Humidity;BMP_temperature;BMP_pressure;BME280_temperature;BME280_humidity;BME280_pressure;Samples;Min_cycle;Max_cycle;Signal;HPM_P1;HPM_P2
2023/09/10 00:01:11;;;;;;;20.15;16.65;;;;;;;22.28;79.39;101454.66;3586236;39;20553;-65
2023/09/10 00:03:37;;;;;;;18.08;16.02;;;;;;;22.26;79.82;101460.28;3591854;39;20060;-66
2023/09/10 00:06:05;;;;;;;22.35;17.27;;;;;;;22.23;79.94;101452.38;3596274;39;20847;-67
2023/09/10 00:08:35;;;;;;;21.98;17.65;;;;;;;21.89;79.97;101403.75;3592267;39;20283;-66
2023/09/10 00:11:02;;;;;;;20.23;18.13;;;;;;;22.19;80.11;101453.69;3591093;39;20113;-66
2023/09/10 00:13:28;;;;;;;20.33;18.02;;;;;;;22.20;80.23;101463.63;3591932;39;20043;-66
2023/09/10 00:15:55;;;;;;;23.40;18.63;;;;;;;22.07;80.32;101450.28;3594104;39;20448;-65
2023/09/10 00:18:21;;;;;;;21.98;18.25;;;;;;;22.16;80.34;101456.75;3586731;39;20055;-67
2023/09/10 00:20:51;;;;;;;21.02;18.13;;;;;;;22.11;80.27;101450.88;3593222;39;20043;-65
2023/09/10 00:23:17;;;;;;;24.02;19.13;;;;;;;22.12;80.59;101452.56;3592893;39;20055;-65
2023/09/10 00:25:42;;;;;;;21.77;19.38;;;;;;;22.11;80.22;101461.81;3591781;39;20148;-67
2023/09/10 00:28:08;;;;;;;21.73;18.98;;;;;;;22.00;80.12;101439.09;3592546;39;20280;-66
2023/09/10 00:30:35;;;;;;;22.50;20.15;;;;;;;22.08;80.39;101456.66;3586438;39;20454;-66
2023/09/10 00:33:01;;;;;;;22.05;19.65;;;;;;;22.06;80.46;101453.19;3589359;39;20077;-67
2023/09/10 00:35:27;;;;;;;23.58;20.67;;;;;;;22.03;80.26;101455.22;3593018;39;20375;-67
2023/09/10 00:37:53;;;;;;;23.30;20.90;;;;;;;21.99;80.49;101448.34;3593632;39;20128;-67
2023/09/10 00:40:19;;;;;;;24.77;20.70;;;;;;;22.00;80.57;101454.66;3589161;39;20051;-68
2023/09/10 00:42:44;;;;;;;21.70;19.42;;;;;;;21.77;80.08;101411.31;3591179;39;20063;-67
2023/09/10 00:45:12;;;;;;;25.35;20.27;;;;;;;21.96;80.44;101448.63;3592381;39;20456;-67
2023/09/10 00:47:47;;;;;;;22.08;19.67;;;;;;;21.92;80.24;101446.38;3593035;39;20058;-67
2023/09/10 00:50:14;;;;;;;21.98;19.70;;;;;;;21.88;80.45;101445.78;3596073;39;20051;-67
2023/09/10 00:52:50;;;;;;;24.35;21.17;;;;;;;21.84;80.98;101449.00;3592746;39;20055;-67
2023/09/10 00:55:19;;;;;;;24.65;21.70;;;;;;;21.84;80.52;101449.88;3596329;39;20055;-66
2023/09/10 00:57:45;;;;;;;24.52;21.90;;;;;;;21.74;80.75;101433.50;3594018;39;20066;-67
2023/09/10 01:00:12;;;;;;;29.70;26.35;;;;;;;21.78;80.80;101445.84;3597999;39;20055;-68
2023/09/10 01:02:43;;;;;;;27.77;24.85;;;;;;;21.78;80.85;101447.72;3596435;39;20395;-67
2023/09/10 01:05:12;;;;;;;30.90;27.70;;;;;;;21.69;80.63;101435.84;3596052;39;20056;-66
2023/09/10 01:07:38;;;;;;;29.02;25.92;;;;;;;21.71;80.73;101449.38;3595424;39;20125;-66
2023/09/10 01:10:08;;;;;;;31.45;28.25;;;;;;;21.66;79.95;101446.22;3598242;39;20068;-68
2023/09/10 01:13:21;;;;;;;30.98;27.48;;;;;;;21.58;81.09;101444.25;3594818;39;20052;-67
2023/09/10 01:16:01;;;;;;;30.17;27.13;;;;;;;21.58;81.00;101452.47;3561214;40;20061;-66
2023/09/10 01:18:46;;;;;;;30.13;26.92;;;;;;;21.46;81.46;101429.91;3598414;39;20067;-67
2023/09/10 01:21:50;;;;;;;29.45;26.27;;;;;;;21.47;81.27;101438.97;3594739;39;20048;-65
2023/09/10 01:24:46;;;;;;;30.83;27.50;;;;;;;20.92;81.47;101365.91;3588399;39;20054;-66
2023/09/10 01:27:13;;;;;;;31.23;27.90;;;;;;;21.44;82.23;101442.88;3584651;39;20064;-66
2023/09/10 01:29:38;;;;;;;33.67;28.00;;;;;;;21.43;82.53;101451.22;3595249;39;20086;-66
2023/09/10 01:32:12;;;;;;;31.02;27.85;;;;;;;21.43;82.73;101446.59;3595264;39;20504;-66
2023/09/10 01:34:51;;;;;;;30.88;27.77;;;;;;;21.39;83.30;101442.47;3594793;39;20055;-66
2023/09/10 01:37:29;;;;;;;30.00;26.98;;;;;;;21.42;84.10;101444.03;3597036;39;20106;-65
2023/09/10 01:40:00;;;;;;;32.13;28.65;;;;;;;21.30;83.88;101424.19;3593629;39;20044;-65
2023/09/10 01:42:26;;;;;;;31.40;27.88;;;;;;;21.39;83.73;101450.66;3594085;39;20040;-66
2023/09/10 01:44:54;;;;;;;31.20;28.10;;;;;;;21.34;84.11;101439.28;3595930;39;20055;-68
2023/09/10 01:47:19;;;;;;;32.20;28.88;;;;;;;21.36;84.24;101450.09;3596046;39;20294;-67
2023/09/10 01:49:46;;;;;;;31.20;27.88;;;;;;;21.36;84.66;101450.09;3596067;39;20055;-66
2023/09/10 01:52:11;;;;;;;31.20;27.98;;;;;;;21.34;85.13;101458.41;3595797;39;20052;-66
2023/09/10 01:54:37;;;;;;;32.05;28.75;;;;;;;21.34;85.23;101455.69;3593689;39;20062;-66
2023/09/10 01:57:03;;;;;;;30.45;27.48;;;;;;;21.32;85.39;101457.72;3596003;39;20435;-66
2023/09/10 01:59:28;;;;;;;31.45;28.08;;;;;;;21.29;85.67;101450.66;3596641;39;20310;-64
2023/09/10 02:01:54;;;;;;;31.33;28.33;;;;;;;21.25;85.46;101451.09;3595479;39;20062;-65
2023/09/10 02:04:20;;;;;;;30.60;27.48;;;;;;;21.25;86.20;101454.72;3595144;39;20055;-65
2023/09/10 02:06:45;;;;;;;31.92;28.35;;;;;;;21.23;86.21;101456.75;3593277;39;20064;-65
2023/09/10 02:09:11;;;;;;;32.38;29.25;;;;;;;21.23;86.70;101461.34;3595971;39;20058;-66
2023/09/10 02:11:36;;;;;;;32.28;29.17;;;;;;;21.21;86.21;101458.75;3597668;39;20047;-66
2023/09/10 02:14:02;;;;;;;31.38;28.23;;;;;;;21.21;86.61;101455.16;3592624;39;20064;-65
2023/09/10 02:16:28;;;;;;;32.08;27.75;;;;;;;21.21;86.51;101457.88;3592326;39;20052;-65
2023/09/10 02:18:53;;;;;;;30.85;27.85;;;;;;;21.16;86.66;101449.28;3594257;39;20414;-67
2023/09/10 02:21:19;;;;;;;32.28;28.95;;;;;;;21.22;86.77;101457.75;3594103;39;21294;-67
2023/09/10 02:23:45;;;;;;;30.83;27.67;;;;;;;21.24;86.93;101460.31;3594787;39;20279;-66
2023/09/10 02:26:11;;;;;;;31.55;28.35;;;;;;;21.24;86.91;101465.81;3597199;39;20074;-66
2023/09/10 02:28:36;;;;;;;34.00;30.63;;;;;;;21.21;86.74;101464.22;3594308;39;20383;-68
2023/09/10 02:31:08;;;;;;;33.58;30.13;;;;;;;21.21;86.70;101468.81;3592328;39;20458;-66
2023/09/10 02:33:35;;;;;;;34.35;30.80;;;;;;;21.19;86.72;101459.94;3594832;39;20364;-66
2023/09/10 02:36:02;;;;;;;35.13;31.73;;;;;;;21.00;87.05;101423.44;3595088;39;20095;-67
2023/09/10 02:38:28;;;;;;;35.80;32.30;;;;;;;21.16;87.04;101461.09;3594149;39;20056;-67
2023/09/10 02:40:55;;;;;;;33.53;30.23;;;;;;;21.15;86.83;101453.00;3593323;39;20044;-68
2023/09/10 02:43:22;;;;;;;35.88;32.08;;;;;;;21.15;87.61;101458.47;3593195;39;20054;-67
2023/09/10 02:45:48;;;;;;;34.45;30.83;;;;;;;21.16;87.21;101454.75;3591611;39;20056;-66
2023/09/10 02:48:14;;;;;;;37.17;31.63;;;;;;;21.04;87.43;101438.53;3588115;39;20048;-66
2023/09/10 02:50:40;;;;;;;36.05;32.50;;;;;;;21.16;87.74;101460.22;3595294;39;20421;-67
2023/09/10 02:53:05;;;;;;;37.42;33.53;;;;;;;21.17;87.39;101457.31;3591116;39;20056;-66
2023/09/10 02:55:31;;;;;;;37.45;33.72;;;;;;;21.17;86.96;101461.94;3593864;39;20070;-66
2023/09/10 02:57:57;;;;;;;38.25;34.45;;;;;;;21.18;86.76;101463.66;3594760;39;20065;-66
2023/09/10 03:00:25;;;;;;;39.33;35.28;;;;;;;21.17;86.88;101467.41;3592402;39;20055;-66
2023/09/10 03:02:55;;;;;;;38.55;34.80;;;;;;;21.16;86.33;101465.69;3592338;39;20565;-67
2023/09/10 03:05:22;;;;;;;38.03;34.33;;;;;;;21.15;86.94;101469.41;3594730;39;20512;-66
2023/09/10 03:07:55;;;;;;;37.75;34.05;;;;;;;21.10;86.78;101457.06;3592309;39;20058;-65
2023/09/10 03:10:21;;;;;;;40.15;36.13;;;;;;;21.12;86.84;101473.31;3595578;39;20436;-66
2023/09/10 03:12:47;;;;;;;38.47;34.78;;;;;;;21.12;87.53;101470.56;3591250;39;20156;-67
2023/09/10 03:15:13;;;;;;;39.03;35.22;;;;;;;21.10;87.48;101458.94;3596888;39;20505;-65
2023/09/10 03:17:39;;;;;;;42.03;37.97;;;;;;;21.09;87.44;101455.34;3597381;39;20047;-65
2023/09/10 03:20:09;;;;;;;39.00;35.17;;;;;;;21.09;87.83;101460.81;3595024;39;20071;-66
2023/09/10 03:22:36;;;;;;;38.40;34.85;;;;;;;21.09;87.70;101459.94;3593656;39;20047;-64
2023/09/10 03:25:01;;;;;;;40.95;36.60;;;;;;;21.07;87.45;101451.88;3593496;39;20072;-65
2023/09/10 03:27:27;;;;;;;44.28;39.88;;;;;;;21.08;87.77;101456.34;3593348;39;20059;-65
2023/09/10 03:29:53;;;;;;;42.38;38.17;;;;;;;21.10;87.68;101457.06;3583048;39;20056;-64
2023/09/10 03:32:19;;;;;;;43.72;39.28;;;;;;;21.09;87.33;101457.19;3596285;39;20415;-65
2023/09/10 03:34:45;;;;;;;44.33;39.83;;;;;;;21.09;87.89;101449.00;3593977;39;20048;-65
2023/09/10 03:37:10;;;;;;;41.47;36.97;;;;;;;21.08;87.65;101453.59;3586628;39;20063;-64
2023/09/10 03:39:36;;;;;;;43.25;38.95;;;;;;;21.10;87.23;101451.59;3592513;39;20391;-65
2023/09/10 03:42:02;;;;;;;42.33;38.20;;;;;;;21.09;87.00;101449.88;3596805;39;20341;-64
2023/09/10 03:44:28;;;;;;;44.55;40.03;;;;;;;21.12;86.48;101450.56;3594852;39;20062;-65
2023/09/10 03:46:54;;;;;;;43.13;38.97;;;;;;;21.12;87.24;101453.31;3594584;39;20352;-66
2023/09/10 03:49:21;;;;;;;42.92;38.63;;;;;;;21.09;86.94;101444.41;3593502;39;20051;-65
2023/09/10 03:51:49;;;;;;;43.50;39.03;;;;;;;21.09;87.15;101447.16;3592451;39;20063;-66
2023/09/10 03:54:14;;;;;;;43.25;38.88;;;;;;;21.09;87.04;101449.88;3592297;39;20082;-66
2023/09/10 03:56:43;;;;;;;44.70;40.30;;;;;;;21.06;87.16;101443.84;3596982;39;20333;-65
2023/09/10 03:59:10;;;;;;;43.97;39.50;;;;;;;20.90;86.93;101413.50;3595893;39;20123;-65
2023/09/10 04:01:36;;;;;;;43.72;39.17;;;;;;;21.03;87.26;101450.47;3594841;39;20136;-66
2023/09/10 04:04:03;;;;;;;42.50;38.20;;;;;;;20.97;87.28;101431.06;3591565;39;20068;-66
2023/09/10 04:06:29;;;;;;;43.65;39.25;;;;;;;21.02;87.55;101442.41;3592209;39;20207;-65
2023/09/10 04:08:54;;;;;;;44.10;39.88;;;;;;;21.00;87.29;101437.09;3590891;39;20055;-64
2023/09/10 04:11:20;;;;;;;44.25;39.72;;;;;;;20.99;87.76;101438.09;3591755;39;20531;-64
2023/09/10 04:13:46;;;;;;;43.03;38.83;;;;;;;20.89;87.93;101429.06;3590834;39;20063;-65
2023/09/10 04:16:12;;;;;;;44.13;39.65;;;;;;;20.92;88.52;101439.69;3591577;39;20287;-65
2023/09/10 04:18:37;;;;;;;44.08;39.70;;;;;;;20.89;88.74;101437.25;3594402;39;20103;-65
2023/09/10 04:21:04;;;;;;;44.65;40.35;;;;;;;20.86;88.72;101427.47;3581441;39;20059;-65
2023/09/10 04:23:30;;;;;;;45.50;40.90;;;;;;;20.85;88.80;101435.84;3591038;39;20052;-65
2023/09/10 04:25:56;;;;;;;45.42;41.10;;;;;;;20.85;88.67;101430.38;3596804;39;20453;-65
2023/09/10 04:28:22;;;;;;;43.50;39.30;;;;;;;20.83;88.99;101435.97;3593876;39;20044;-67
2023/09/10 04:30:48;;;;;;;43.22;38.90;;;;;;;20.65;88.19;101402.22;3592615;39;20064;-64
2023/09/10 04:33:16;;;;;;;44.65;40.30;;;;;;;20.80;88.56;101427.19;3591522;39;20055;-65
2023/09/10 04:35:49;;;;;;;44.28;39.90;;;;;;;20.79;88.80;101428.22;3593830;39;20095;-64
2023/09/10 04:38:15;;;;;;;45.92;41.35;;;;;;;20.78;88.18;101429.25;3594251;39;20099;-65
2023/09/10 04:40:41;;;;;;;43.78;39.33;;;;;;;20.71;87.81;101428.97;3596873;39;20485;-64
2023/09/10 04:43:07;;;;;;;44.63;40.35;;;;;;;20.62;88.45;101422.50;3593884;39;20048;-64
2023/09/10 04:45:33;;;;;;;42.35;38.25;;;;;;;20.71;88.33;101437.16;3591019;39;20388;-65
2023/09/10 04:47:59;;;;;;;44.80;40.50;;;;;;;20.70;88.54;101437.28;3592389;39;21477;-65
2023/09/10 04:50:25;;;;;;;45.30;40.90;;;;;;;20.63;87.99;101428.81;3592547;39;20073;-67
2023/09/10 04:52:52;;;;;;;42.63;38.53;;;;;;;20.64;88.27;101431.38;3591249;39;20066;-65
2023/09/10 04:55:18;;;;;;;42.20;37.78;;;;;;;20.62;88.34;101436.16;3592314;39;20051;-66
2023/09/10 04:57:44;;;;;;;43.00;38.78;;;;;;;20.60;88.99;101432.69;3593754;39;20059;-66
2023/09/10 05:00:10;;;;;;;43.35;38.97;;;;;;;20.54;89.19;101424.22;3595972;39;20359;-67
2023/09/10 05:02:36;;;;;;;45.58;41.10;;;;;;;20.57;89.29;101435.72;3596354;39;20282;-66
2023/09/10 05:05:02;;;;;;;43.90;39.60;;;;;;;20.54;89.43;101441.47;3590375;39;20059;-65
2023/09/10 05:07:28;;;;;;;43.90;39.50;;;;;;;20.52;89.30;101439.88;3593926;39;20071;-66
2023/09/10 05:09:54;;;;;;;40.67;36.65;;;;;;;20.53;89.11;101441.63;3592648;39;20087;-66
2023/09/10 05:12:20;;;;;;;41.10;36.97;;;;;;;20.54;89.17;101449.66;3591464;39;20052;-66
2023/09/10 05:14:45;;;;;;;42.92;38.63;;;;;;;20.55;88.91;101450.53;3591767;39;20456;-65
2023/09/10 05:17:11;;;;;;;42.25;37.85;;;;;;;20.55;89.42;101451.41;3585395;39;20063;-65
2023/09/10 05:19:37;;;;;;;41.70;37.60;;;;;;;20.55;88.53;101447.78;3595973;39;20314;-65
2023/09/10 05:22:02;;;;;;;41.13;37.13;;;;;;;20.52;88.71;101446.25;3587162;39;20064;-67
2023/09/10 05:24:28;;;;;;;41.63;37.53;;;;;;;20.49;88.90;101451.94;3592264;39;20051;-66
2023/09/10 05:26:54;;;;;;;43.08;38.70;;;;;;;20.48;89.71;101452.94;3592633;39;20055;-66
2023/09/10 05:29:19;;;;;;;40.97;36.65;;;;;;;20.44;90.07;101453.38;3591488;39;20067;-65
2023/09/10 05:31:45;;;;;;;43.28;39.13;;;;;;;20.45;89.55;101450.50;3592102;39;20055;-65
2023/09/10 05:34:11;;;;;;;42.40;38.28;;;;;;;;;;3591160;39;20055;-65
2023/09/10 05:36:37;;;;;;;40.88;36.83;;;;;;;20.46;90.39;101451.38;3594647;39;20106;-66
2023/09/10 05:39:02;;;;;;;41.58;37.38;;;;;;;20.49;90.02;101457.41;3591230;39;20152;-67
2023/09/10 05:41:28;;;;;;;40.78;36.58;;;;;;;20.51;89.96;101454.53;3591969;39;20408;-66
2023/09/10 05:43:54;;;;;;;41.63;37.58;;;;;;;20.52;89.79;101456.28;3591129;39;20118;-66
2023/09/10 05:46:19;;;;;;;40.60;36.42;;;;;;;20.54;89.98;101457.84;3593449;39;20055;-67
2023/09/10 05:48:45;;;;;;;40.80;36.60;;;;;;;20.58;89.42;101459.31;3594815;39;20052;-65
2023/09/10 05:51:10;;;;;;;42.35;38.17;;;;;;;20.59;90.18;101451.97;3592000;39;20087;-65
2023/09/10 05:53:36;;;;;;;40.65;36.50;;;;;;;20.66;89.26;101453.13;3595758;39;20047;-66
2023/09/10 05:56:05;;;;;;;40.83;36.85;;;;;;;20.72;89.36;101459.88;3593633;39;20077;-66
2023/09/10 05:58:30;;;;;;;39.42;35.30;;;;;;;20.73;89.08;101451.53;3593779;39;20070;-66
2023/09/10 06:00:56;;;;;;;39.17;35.13;;;;;;;20.80;88.66;101460.84;3594358;39;20051;-67
2023/09/10 06:03:21;;;;;;;38.30;34.50;;;;;;;20.85;88.64;101463.16;3573578;39;20055;-66
2023/09/10 06:05:49;;;;;;;36.75;33.15;;;;;;;20.90;88.75;101471.78;3594971;39;20490;-66
2023/09/10 06:08:15;;;;;;;37.13;33.53;;;;;;;20.96;88.06;101465.72;3597722;39;20051;-65
2023/09/10 06:10:40;;;;;;;36.50;32.75;;;;;;;21.01;88.07;101474.34;3597449;39;20330;-64
2023/09/10 06:13:06;;;;;;;35.85;32.35;;;;;;;21.07;88.26;101481.97;3593234;39;20055;-64
2023/09/10 06:15:32;;;;;;;35.95;32.22;;;;;;;21.11;88.74;101474.31;3593471;39;20064;-66
2023/09/10 06:17:58;;;;;;;35.13;31.55;;;;;;;21.19;88.25;101481.81;3594440;39;20145;-65
2023/09/10 06:20:23;;;;;;;33.72;30.42;;;;;;;21.24;88.15;101485.78;3594051;39;20064;-66
2023/09/10 06:22:49;;;;;;;34.80;31.23;;;;;;;21.30;87.97;101487.94;3592907;39;20047;-66
2023/09/10 06:25:15;;;;;;;36.08;32.33;;;;;;;21.31;87.26;101481.47;3592798;39;20055;-68
2023/09/10 06:27:40;;;;;;;33.75;30.35;;;;;;;21.40;86.85;101490.66;3591776;39;20079;-67
2023/09/10 06:30:07;;;;;;;33.80;30.17;;;;;;;21.39;85.49;101477.16;3590740;39;20078;-68
2023/09/10 06:32:32;;;;;;;33.65;30.10;;;;;;;21.53;84.75;101493.06;3592688;39;20433;-70
2023/09/10 06:34:58;;;;;;;33.53;30.15;;;;;;;21.60;84.48;101487.84;3591485;39;20070;-67
2023/09/10 06:37:24;;;;;;;32.65;29.48;;;;;;;21.68;84.45;101493.47;3594412;39;20104;-68
2023/09/10 06:39:50;;;;;;;31.92;28.65;;;;;;;21.75;83.20;101489.94;3595516;39;20095;-68
2023/09/10 06:42:15;;;;;;;29.90;26.83;;;;;;;21.85;83.04;101495.41;3591300;39;20381;-68
2023/09/10 06:44:43;;;;;;;33.08;29.67;;;;;;;21.95;82.75;101501.69;3591575;39;20052;-67
2023/09/10 06:47:12;;;;;;;30.65;27.25;;;;;;;22.05;82.35;101503.50;3592305;39;20047;-68
2023/09/10 06:49:38;;;;;;;29.23;26.35;;;;;;;22.10;81.57;101495.66;3592949;39;20048;-67
2023/09/10 06:52:05;;;;;;;31.90;28.52;;;;;;;22.21;80.46;101503.72;3592717;39;20067;-68
2023/09/10 06:54:32;;;;;;;28.77;24.77;;;;;;;22.33;79.90;101507.97;3591575;39;20070;-68
2023/09/10 06:57:01;;;;;;;27.35;24.45;;;;;;;22.44;80.11;101501.38;3595280;39;20079;-67
2023/09/10 06:59:28;;;;;;;29.58;26.23;;;;;;;22.35;79.29;101470.28;3595032;39;20070;-68
2023/09/10 07:01:54;;;;;;;27.17;23.60;;;;;;;22.46;80.34;101464.59;3589967;39;20044;-68
2023/09/10 07:04:23;;;;;;;25.40;22.65;;;;;;;22.29;78.70;101427.09;3592708;39;20048;-69
2023/09/10 07:06:51;;;;;;;27.52;24.52;;;;;;;22.89;77.89;101495.78;3593306;39;20051;-67
2023/09/10 07:09:23;;;;;;;24.15;21.55;;;;;;;23.07;76.75;101500.44;3594968;39;20061;-68
2023/09/10 07:11:53;;;;;;;22.48;20.08;;;;;;;23.24;77.13;101510.47;3596540;39;20309;-67
2023/09/10 07:14:22;;;;;;;21.70;19.20;;;;;;;23.41;76.85;101511.47;3593367;39;20071;-67
2023/09/10 07:16:49;;;;;;;22.05;19.20;;;;;;;23.55;76.24;101507.25;3593381;39;20390;-67
2023/09/10 07:19:15;;;;;;;23.48;20.15;;;;;;;23.34;74.59;101439.94;3593554;39;20052;-68
2023/09/10 07:21:41;;;;;;;23.35;19.13;;;;;;;23.97;74.84;101521.03;3592268;39;20359;-67
2023/09/10 07:24:09;;;;;;;21.13;18.02;;;;;;;24.11;73.15;101503.06;3594083;39;20060;-67
2023/09/10 07:26:36;;;;;;;21.95;17.30;;;;;;;24.32;72.38;101508.94;3591549;39;20052;-67
2023/09/10 07:29:04;;;;;;;18.02;16.10;;;;;;;24.50;71.71;101508.00;3593865;39;20060;-65
2023/09/10 07:31:30;;;;;;;20.08;16.83;;;;;;;24.70;70.77;101512.13;3596750;39;20059;-67
2023/09/10 07:33:56;;;;;;;17.88;15.98;;;;;;;24.92;70.32;101512.50;3594526;39;20393;-67
2023/09/10 07:36:21;;;;;;;17.42;14.82;;;;;;;25.09;69.51;101513.38;3597864;39;20467;-68
2023/09/10 07:38:48;;;;;;;17.05;13.88;;;;;;;25.22;68.24;101511.81;3596059;39;20059;-68
2023/09/10 07:41:14;;;;;;;17.77;14.45;;;;;;;25.42;68.99;101514.19;3592194;39;20059;-66
2023/09/10 07:43:39;;;;;;;17.02;13.68;;;;;;;25.60;66.94;101520.34;3592858;39;20072;-68
2023/09/10 07:46:05;;;;;;;16.48;13.50;;;;;;;25.75;66.26;101514.09;3593491;39;20302;-67
2023/09/10 07:48:31;;;;;;;15.43;13.52;;;;;;;25.83;64.38;101514.09;3575518;39;20547;-67
2023/09/10 07:50:58;;;;;;;16.77;13.07;;;;;;;25.97;64.20;101520.75;3592633;39;20087;-67
2023/09/10 07:53:24;;;;;;;17.70;11.30;;;;;;;26.13;64.69;101513.28;3595299;39;20047;-67
2023/09/10 07:55:51;;;;;;;12.77;11.05;;;;;;;26.27;63.11;101524.56;3593217;39;20056;-66
2023/09/10 07:58:17;;;;;;;12.48;10.43;;;;;;;26.39;62.89;101529.50;3595017;39;20368;-66
2023/09/10 08:00:43;;;;;;;11.18;10.00;;;;;;;26.49;62.11;101518.25;3599131;39;20059;-68
2023/09/10 08:03:09;;;;;;;15.65;10.20;;;;;;;26.74;63.27;101529.13;3594224;39;20088;-67
2023/09/10 08:05:35;;;;;;;13.77;9.65;;;;;;;26.88;61.35;101522.78;3592485;39;20335;-66
2023/09/10 08:08:04;;;;;;;14.60;9.98;;;;;;;27.01;59.99;101536.81;3591863;39;20060;-66
2023/09/10 08:10:32;;;;;;;12.98;9.02;;;;;;;27.18;60.05;101534.81;3593482;39;20056;-68
2023/09/10 08:12:59;;;;;;;10.73;8.50;;;;;;;27.30;61.19;101538.81;3591317;39;20055;-66
2023/09/10 08:15:25;;;;;;;11.18;8.60;;;;;;;27.47;59.45;101539.53;3592695;39;20052;-67
2023/09/10 08:17:55;;;;;;;11.48;8.15;;;;;;;27.63;58.77;101535.72;3592973;39;20169;-67
2023/09/10 08:20:20;;;;;;;9.40;8.05;;;;;;;27.79;58.48;101526.44;3592061;39;20052;-66
2023/09/10 08:22:46;;;;;;;8.35;7.47;;;;;;;27.80;57.54;101514.31;3593459;39;20063;-67
2023/09/10 08:25:13;;;;;;;12.13;7.65;;;;;;;28.03;58.32;101532.69;3594275;39;20357;-67
2023/09/10 08:27:40;;;;;;;14.50;7.40;;;;;;;28.15;58.08;101526.47;3593522;39;20290;-66
2023/09/10 08:30:09;;;;;;;8.10;7.15;;;;;;;28.34;56.68;101532.44;3592750;39;20063;-66
2023/09/10 08:32:36;;;;;;;10.65;7.50;;;;;;;28.42;56.20;101516.63;3592369;39;20048;-67
2023/09/10 08:35:03;;;;;;;8.75;7.00;;;;;;;28.53;55.48;101525.44;3595809;39;21710;-67
2023/09/10 08:37:30;;;;;;;12.02;6.95;;;;;;;28.61;56.04;101525.34;3585581;39;20495;-66
2023/09/10 08:39:57;;;;;;;9.45;6.90;;;;;;;28.66;55.40;101512.59;3591296;39;20314;-67
2023/09/10 08:42:41;;;;;;;10.50;7.50;;;;;;;28.88;54.18;101509.84;3591250;39;20050;-67
2023/09/10 08:45:11;;;;;;;9.20;6.90;;;;;;;29.00;54.14;101516.53;3591243;39;20051;-67
2023/09/10 08:47:41;;;;;;;10.15;7.18;;;;;;;29.19;54.61;101526.09;3592164;39;20077;-67
2023/09/10 08:50:14;;;;;;;11.20;7.05;;;;;;;29.34;53.97;101524.09;3593622;39;20139;-67
2023/09/10 08:52:48;;;;;;;9.07;6.70;;;;;;;29.43;53.48;101526.69;3591815;39;20385;-67
2023/09/10 08:55:14;;;;;;;10.13;7.03;;;;;;;29.54;53.23;101520.63;3592720;39;20144;-67
2023/09/10 08:57:43;;;;;;;7.47;5.95;;;;;;;29.68;53.84;101522.41;3584752;39;20799;-67
2023/09/10 09:00:14;;;;;;;10.05;6.55;;;;;;;29.81;53.15;101527.19;3591701;39;20077;-66
2023/09/10 09:02:43;;;;;;;9.02;6.72;;;;;;;29.94;52.30;101534.72;3594930;39;20131;-66
2023/09/10 09:05:09;;;;;;;10.65;6.75;;;;;;;30.03;53.00;101530.72;3595011;39;20055;-67
2023/09/10 09:07:41;;;;;;;7.40;6.25;;;;;;;30.15;52.43;101533.75;3582869;39;20048;-67
2023/09/10 09:10:12;;;;;;;9.98;6.38;;;;;;;30.28;52.78;101529.13;3591843;39;20121;-67
2023/09/10 09:12:41;;;;;;;9.55;6.05;;;;;;;30.42;52.05;101529.19;3592239;39;20060;-66
2023/09/10 09:15:09;;;;;;;9.27;5.68;;;;;;;30.48;50.90;101509.78;3586906;39;20051;-66
2023/09/10 09:17:38;;;;;;;12.57;5.90;;;;;;;30.66;51.11;101509.16;3593535;39;20062;-67
2023/09/10 09:20:11;;;;;;;10.90;5.78;;;;;;;30.88;50.67;101528.44;3591065;39;20055;-67
2023/09/10 09:22:42;;;;;;;;;;;;;;;30.95;51.01;101518.19;3595152;39;20068;-67
2023/09/10 09:25:09;;;;;;;8.82;5.80;;;;;;;31.01;50.61;101506.25;3594112;39;19931;-66
2023/09/10 09:27:37;;;;;;;12.10;6.07;;;;;;;31.30;51.97;101515.19;3594392;39;20052;-66
2023/09/10 09:30:06;;;;;;;9.20;5.47;;;;;;;31.42;50.86;101519.06;3596836;39;20047;-67
2023/09/10 09:32:37;;;;;;;10.05;5.75;;;;;;;31.51;49.67;101512.22;3593758;39;20059;-66
2023/09/10 09:35:13;;;;;;;10.02;5.65;;;;;;;31.64;48.19;101514.09;3593889;39;21643;-67
2023/09/10 09:37:40;;;;;;;8.48;5.40;;;;;;;31.77;48.00;101518.78;3593637;39;20060;-66
2023/09/10 09:40:09;;;;;;;5.97;4.85;;;;;;;31.86;48.46;101515.53;3595991;39;20051;-67
2023/09/10 09:42:36;;;;;;;6.15;4.75;;;;;;;32.00;48.07;101516.41;3595762;39;20063;-67
2023/09/10 09:45:03;;;;;;;7.13;4.63;;;;;;;32.20;47.21;101515.44;3587728;39;20052;-67
2023/09/10 09:47:31;;;;;;;7.82;4.95;;;;;;;32.31;47.40;101501.66;3582502;39;20062;-68
2023/09/10 09:49:58;;;;;;;6.28;4.55;;;;;;;32.40;48.41;101510.63;3593456;39;20052;-67
2023/09/10 09:52:24;;;;;;;6.40;4.88;;;;;;;32.41;45.72;101486.41;3592543;39;21913;-65
2023/09/10 09:54:50;;;;;;;8.65;4.70;;;;;;;32.65;46.73;101509.84;3585808;39;20538;-66
2023/09/10 09:57:16;;;;;;;8.23;4.85;;;;;;;32.71;44.21;101495.88;3593326;39;20048;-67
2023/09/10 09:59:43;;;;;;;6.07;4.20;;;;;;;32.86;44.32;101503.03;3596205;39;20052;-66
2023/09/10 10:02:17;;;;;;;8.35;4.18;;;;;;;32.85;44.20;101485.47;3596004;39;20670;-65
2023/09/10 10:04:44;;;;;;;6.30;3.80;;;;;;;32.99;44.11;101503.00;3593592;39;20051;-66
2023/09/10 10:07:14;;;;;;;6.30;4.18;;;;;;;33.10;44.47;101498.59;3592528;39;20055;-66
2023/09/10 10:09:41;;;;;;;7.05;4.15;;;;;;;33.24;43.62;101500.19;3594554;39;20301;-67
2023/09/10 10:12:08;;;;;;;7.47;3.70;;;;;;;33.38;43.17;101498.97;3583375;39;20048;-67
2023/09/10 10:14:36;;;;;;;8.15;4.00;;;;;;;33.50;42.26;101499.09;3594891;39;20063;-67
2023/09/10 10:17:06;;;;;;;8.77;3.90;;;;;;;33.64;42.11;101489.50;3593976;39;20137;-68
2023/09/10 10:19:33;;;;;;;8.68;3.85;;;;;;;33.79;40.08;101491.06;3593157;39;20346;-68
2023/09/10 10:22:01;;;;;;;7.75;5.00;;;;;;;33.97;40.54;101491.03;3592189;39;20095;-68
2023/09/10 10:24:27;;;;;;;6.60;3.70;;;;;;;34.14;41.34;101497.72;3595320;39;20378;-68
2023/09/10 10:26:53;;;;;;;7.18;3.60;;;;;;;34.20;40.71;101488.41;3592356;39;20074;-67
2023/09/10 10:29:22;;;;;;;8.25;4.05;;;;;;;34.29;39.82;101490.88;3591672;39;20141;-68
2023/09/10 10:32:30;;;;;;;5.82;3.80;;;;;;;34.29;39.82;101486.13;3593616;39;20363;-67
2023/09/10 10:35:01;;;;;;;9.10;3.92;;;;;;;34.41;39.26;101489.81;3595564;39;20048;-68
2023/09/10 10:37:56;;;;;;;5.35;3.80;;;;;;;34.53;38.51;101464.75;3592885;39;20144;-68
2023/09/10 10:40:31;;;;;;;7.30;3.80;;;;;;;34.83;38.70;101486.19;3592765;39;20047;-67
2023/09/10 10:43:30;;;;;;;7.57;4.07;;;;;;;34.83;38.47;101484.25;3594882;39;20084;-67
2023/09/10 10:45:57;;;;;;;6.03;3.75;;;;;;;34.94;38.08;101487.28;3597555;39;20128;-68
2023/09/10 10:48:33;;;;;;;8.05;3.92;;;;;;;35.04;41.46;101481.97;3597927;39;20354;-67
2023/09/10 10:51:02;;;;;;;7.97;3.63;;;;;;;35.12;39.24;101481.63;3596411;39;20067;-68
2023/09/10 10:53:30;;;;;;;5.55;3.58;;;;;;;35.21;37.69;101476.53;3598632;39;20063;-66
2023/09/10 10:56:03;;;;;;;8.27;3.70;;;;;;;35.37;37.30;101474.97;3595373;39;20267;-67
2023/09/10 10:58:32;;;;;;;6.68;3.78;;;;;;;35.46;38.38;101470.66;3596404;39;20052;-66
2023/09/10 11:00:59;;;;;;;10.80;4.00;;;;;;;35.40;36.57;101457.69;3593703;39;20137;-68
2023/09/10 11:03:26;;;;;;;8.98;3.92;;;;;;;35.51;38.08;101470.78;3593154;39;20068;-67
2023/09/10 11:05:54;;;;;;;8.77;3.60;;;;;;;35.64;37.01;101464.13;3593472;39;20087;-68
2023/09/10 11:08:43;;;;;;;5.45;3.58;;;;;;;35.76;36.07;101473.34;3594580;39;20072;-68
2023/09/10 11:11:39;;;;;;;8.48;3.80;;;;;;;35.76;36.39;101471.38;3593375;39;20060;-67
2023/09/10 11:14:08;;;;;;;7.15;3.83;;;;;;;35.76;35.86;101468.59;3594869;39;20290;-68
2023/09/10 11:16:35;;;;;;;7.80;4.20;;;;;;;35.74;37.65;101462.38;3593996;39;20048;-68
2023/09/10 11:19:03;;;;;;;7.90;3.40;;;;;;;35.88;36.54;101464.91;3592779;39;20040;-68